sensor_id;sensor_type;location;lat;lon;timestamp;temperature;humidity
48936;DHT22;34745;52.276;10.528;2023-03-01T00:00:51;-0.20;1.00
48936;DHT22;34745;52.276;10.528;2023-03-01T00:03:18;-0.10;1.00
48936;DHT22;34745;52.276;10.528;2023-03-01T00:05:47;-0.20;1.00
48936;DHT22;34745;52.276;10.528;2023-03-01T00:08:14;-0.20;1.00
48936;DHT22;34745;52.276;10.528;2023-03-01T00:10:41;-0.20;1.00
48936;DHT22;34745;52.276;10.528;2023-03-01T00:13:07;-0.20;1.00
48936;DHT22;34745;52.276;10.528;2023-03-01T00:15:38;-0.20;1.00
48936;DHT22;34745;52.276;10.528;2023-03-01T00:18:05;-0.30;1.00
48936;DHT22;34745;52.276;10.528;2023-03-01T00:20:33;-0.30;1.00
48936;DHT22;34745;52.276;10.528;2023-03-01T00:23:01;-0.30;1.00
48936;DHT22;34745;52.276;10.528;2023-03-01T00:25:28;-0.30;1.00
48936;DHT22;34745;52.276;10.528;2023-03-01T00:27:55;-0.40;1.00
48936;DHT22;34745;52.276;10.528;2023-03-01T00:30:22;-0.50;1.00
48936;DHT22;34745;52.276;10.528;2023-03-01T00:32:49;-0.60;1.00
48936;DHT22;34745;52.276;10.528;2023-03-01T00:35:16;-0.60;1.00
48936;DHT22;34745;52.276;10.528;2023-03-01T00:37:43;-0.70;1.00
48936;DHT22;34745;52.276;10.528;2023-03-01T00:40:12;-0.70;1.00
48936;DHT22;34745;52.276;10.528;2023-03-01T00:42:43;-0.70;1.00
48936;DHT22;34745;52.276;10.528;2023-03-01T00:45:10;-0.70;1.00
48936;DHT22;34745;52.276;10.528;2023-03-01T00:47:37;-0.70;1.00
48936;DHT22;34745;52.276;10.528;2023-03-01T00:50:05;-0.60;1.00
48936;DHT22;34745;52.276;10.528;2023-03-01T00:52:32;-0.80;1.00
48936;DHT22;34745;52.276;10.528;2023-03-01T00:54:59;-0.80;1.00
48936;DHT22;34745;52.276;10.528;2023-03-01T00:57:27;-0.80;1.00
48936;DHT22;34745;52.276;10.528;2023-03-01T00:59:54;-0.80;1.00
48936;DHT22;34745;52.276;10.528;2023-03-01T01:02:22;-0.70;1.00
48936;DHT22;34745;52.276;10.528;2023-03-01T01:04:49;-0.80;1.00
48936;DHT22;34745;52.276;10.528;2023-03-01T01:07:16;-0.80;1.00
48936;DHT22;34745;52.276;10.528;2023-03-01T01:09:43;-0.80;1.00
48936;DHT22;34745;52.276;10.528;2023-03-01T01:12:10;-0.90;1.00
48936;DHT22;34745;52.276;10.528;2023-03-01T01:14:38;-0.90;1.00
48936;DHT22;34745;52.276;10.528;2023-03-01T01:17:06;-0.90;1.00
48936;DHT22;34745;52.276;10.528;2023-03-01T01:19:33;-0.90;1.00
48936;DHT22;34745;52.276;10.528;2023-03-01T01:22:00;-0.90;1.00
48936;DHT22;34745;52.276;10.528;2023-03-01T01:24:27;-0.90;1.00
48936;DHT22;34745;52.276;10.528;2023-03-01T01:26:54;-0.80;1.00
48936;DHT22;34745;52.276;10.528;2023-03-01T01:29:21;-0.80;1.00
48936;DHT22;34745;52.276;10.528;2023-03-01T01:31:49;-0.80;1.00
48936;DHT22;34745;52.276;10.528;2023-03-01T01:34:19;-0.80;1.00
48936;DHT22;34745;52.276;10.528;2023-03-01T01:36:48;-0.80;1.00
48936;DHT22;34745;52.276;10.528;2023-03-01T01:39:15;-0.80;1.00
48936;DHT22;34745;52.276;10.528;2023-03-01T01:41:42;-0.70;1.00
48936;DHT22;34745;52.276;10.528;2023-03-01T01:44:16;-0.70;1.00
48936;DHT22;34745;52.276;10.528;2023-03-01T01:46:47;-0.70;1.00
48936;DHT22;34745;52.276;10.528;2023-03-01T01:49:23;-0.80;1.00
48936;DHT22;34745;52.276;10.528;2023-03-01T01:51:54;-0.80;1.00
48936;DHT22;34745;52.276;10.528;2023-03-01T01:54:24;-0.80;1.00
48936;DHT22;34745;52.276;10.528;2023-03-01T01:56:57;-0.70;1.00
48936;DHT22;34745;52.276;10.528;2023-03-01T01:59:26;-0.70;1.00
48936;DHT22;34745;52.276;10.528;2023-03-01T02:01:54;-0.70;1.00
48936;DHT22;34745;52.276;10.528;2023-03-01T02:04:23;-0.70;1.00
48936;DHT22;34745;52.276;10.528;2023-03-01T02:06:54;-0.80;1.00
48936;DHT22;34745;52.276;10.528;2023-03-01T02:09:24;-0.80;1.00
48936;DHT22;34745;52.276;10.528;2023-03-01T02:11:52;-0.90;1.00
48936;DHT22;34745;52.276;10.528;2023-03-01T02:14:20;-0.90;1.00
48936;DHT22;34745;52.276;10.528;2023-03-01T02:16:47;-1.00;1.00
48936;DHT22;34745;52.276;10.528;2023-03-01T02:19:32;-1.00;1.00
48936;DHT22;34745;52.276;10.528;2023-03-01T02:22:10;-1.00;1.00
48936;DHT22;34745;52.276;10.528;2023-03-01T02:24:48;-1.10;1.00
48936;DHT22;34745;52.276;10.528;2023-03-01T02:27:23;-1.10;1.00
48936;DHT22;34745;52.276;10.528;2023-03-01T02:29:54;-1.10;1.00
48936;DHT22;34745;52.276;10.528;2023-03-01T02:32:23;-1.00;1.00
48936;DHT22;34745;52.276;10.528;2023-03-01T02:34:52;-1.10;1.00
48936;DHT22;34745;52.276;10.528;2023-03-01T02:37:21;-1.10;1.00
48936;DHT22;34745;52.276;10.528;2023-03-01T02:39:55;-1.10;1.00
48936;DHT22;34745;52.276;10.528;2023-03-01T02:42:28;-1.10;1.00
48936;DHT22;34745;52.276;10.528;2023-03-01T02:44:58;-1.20;1.00
48936;DHT22;34745;52.276;10.528;2023-03-01T02:47:26;-1.20;1.00
48936;DHT22;34745;52.276;10.528;2023-03-01T02:49:54;-1.20;1.00
48936;DHT22;34745;52.276;10.528;2023-03-01T02:52:33;-1.30;1.00
48936;DHT22;34745;52.276;10.528;2023-03-01T02:55:03;-1.30;1.00
48936;DHT22;34745;52.276;10.528;2023-03-01T02:57:34;-1.30;1.00
48936;DHT22;34745;52.276;10.528;2023-03-01T03:00:05;-1.40;1.00
48936;DHT22;34745;52.276;10.528;2023-03-01T03:02:34;-1.40;1.00
48936;DHT22;34745;52.276;10.528;2023-03-01T03:05:07;-1.40;1.00
48936;DHT22;34745;52.276;10.528;2023-03-01T03:07:35;-1.40;1.00
48936;DHT22;34745;52.276;10.528;2023-03-01T03:10:08;-1.40;1.00
48936;DHT22;34745;52.276;10.528;2023-03-01T03:12:35;-1.40;1.00
48936;DHT22;34745;52.276;10.528;2023-03-01T03:15:05;-1.40;1.00
48936;DHT22;34745;52.276;10.528;2023-03-01T03:17:36;-1.40;1.00
48936;DHT22;34745;52.276;10.528;2023-03-01T03:20:04;-1.40;1.00
48936;DHT22;34745;52.276;10.528;2023-03-01T03:22:33;-1.40;1.00
48936;DHT22;34745;52.276;10.528;2023-03-01T03:25:00;-1.50;1.00
48936;DHT22;34745;52.276;10.528;2023-03-01T03:27:28;-1.50;1.00
48936;DHT22;34745;52.276;10.528;2023-03-01T03:29:55;-1.50;1.00
48936;DHT22;34745;52.276;10.528;2023-03-01T03:32:24;-1.50;1.00
48936;DHT22;34745;52.276;10.528;2023-03-01T03:34:51;-1.60;1.00
48936;DHT22;34745;52.276;10.528;2023-03-01T03:37:18;-1.70;1.00
48936;DHT22;34745;52.276;10.528;2023-03-01T03:40:04;-1.60;1.00
48936;DHT22;34745;52.276;10.528;2023-03-01T03:42:42;-1.60;1.00
48936;DHT22;34745;52.276;10.528;2023-03-01T03:45:09;-1.70;1.00
48936;DHT22;34745;52.276;10.528;2023-03-01T03:47:37;-1.60;1.00
48936;DHT22;34745;52.276;10.528;2023-03-01T03:50:05;-1.60;1.00
48936;DHT22;34745;52.276;10.528;2023-03-01T03:52:32;-1.60;1.00
48936;DHT22;34745;52.276;10.528;2023-03-01T03:54:59;-1.60;1.00
48936;DHT22;34745;52.276;10.528;2023-03-01T03:57:26;-1.60;1.00
48936;DHT22;34745;52.276;10.528;2023-03-01T03:59:53;-1.60;1.00
48936;DHT22;34745;52.276;10.528;2023-03-01T04:02:20;-1.70;1.00
48936;DHT22;34745;52.276;10.528;2023-03-01T04:04:50;-1.80;1.00
48936;DHT22;34745;52.276;10.528;2023-03-01T04:07:17;-1.80;1.00
48936;DHT22;34745;52.276;10.528;2023-03-01T04:09:43;-1.90;1.00
48936;DHT22;34745;52.276;10.528;2023-03-01T04:12:11;-1.90;1.00
48936;DHT22;34745;52.276;10.528;2023-03-01T04:14:37;-1.90;1.00
48936;DHT22;34745;52.276;10.528;2023-03-01T04:17:05;-1.90;1.00
48936;DHT22;34745;52.276;10.528;2023-03-01T04:19:32;-1.90;1.20
48936;DHT22;34745;52.276;10.528;2023-03-01T04:22:04;-1.90;2.40
48936;DHT22;34745;52.276;10.528;2023-03-01T04:24:36;-1.90;3.40
48936;DHT22;34745;52.276;10.528;2023-03-01T04:27:03;-1.90;2.70
48936;DHT22;34745;52.276;10.528;2023-03-01T04:29:29;-1.80;1.00
48936;DHT22;34745;52.276;10.528;2023-03-01T04:31:57;-1.80;1.00
48936;DHT22;34745;52.276;10.528;2023-03-01T04:34:24;-1.80;1.00
48936;DHT22;34745;52.276;10.528;2023-03-01T04:36:53;-1.90;1.00
48936;DHT22;34745;52.276;10.528;2023-03-01T04:39:22;-1.80;1.00
48936;DHT22;34745;52.276;10.528;2023-03-01T04:41:49;-1.80;1.00
48936;DHT22;34745;52.276;10.528;2023-03-01T04:44:16;-1.90;1.00
48936;DHT22;34745;52.276;10.528;2023-03-01T04:46:43;-1.90;1.00
48936;DHT22;34745;52.276;10.528;2023-03-01T04:49:10;-1.90;1.10
48936;DHT22;34745;52.276;10.528;2023-03-01T04:51:37;-1.90;3.10
48936;DHT22;34745;52.276;10.528;2023-03-01T04:54:04;-1.90;3.40
48936;DHT22;34745;52.276;10.528;2023-03-01T04:56:36;-2.00;4.20
48936;DHT22;34745;52.276;10.528;2023-03-01T04:59:03;-2.10;6.30
48936;DHT22;34745;52.276;10.528;2023-03-01T05:01:32;-2.00;8.50
48936;DHT22;34745;52.276;10.528;2023-03-01T05:04:00;-2.00;8.20
48936;DHT22;34745;52.276;10.528;2023-03-01T05:06:29;-2.10;7.30
48936;DHT22;34745;52.276;10.528;2023-03-01T05:08:57;-2.10;8.20
48936;DHT22;34745;52.276;10.528;2023-03-01T05:11:24;-2.00;9.80
48936;DHT22;34745;52.276;10.528;2023-03-01T05:13:53;-2.10;13.90
48936;DHT22;34745;52.276;10.528;2023-03-01T05:16:21;-2.10;8.20
48936;DHT22;34745;52.276;10.528;2023-03-01T05:18:48;-2.10;6.40
48936;DHT22;34745;52.276;10.528;2023-03-01T05:21:17;-2.10;6.30
48936;DHT22;34745;52.276;10.528;2023-03-01T05:23:45;-2.10;4.80
48936;DHT22;34745;52.276;10.528;2023-03-01T05:26:14;-2.10;11.10
48936;DHT22;34745;52.276;10.528;2023-03-01T05:28:55;-2.10;4.90
48936;DHT22;34745;52.276;10.528;2023-03-01T05:31:26;-2.20;7.70
48936;DHT22;34745;52.276;10.528;2023-03-01T05:33:53;-2.20;7.30
48936;DHT22;34745;52.276;10.528;2023-03-01T05:36:20;-2.20;8.70
48936;DHT22;34745;52.276;10.528;2023-03-01T05:38:47;-2.20;12.00
48936;DHT22;34745;52.276;10.528;2023-03-01T05:41:14;-2.20;13.20
48936;DHT22;34745;52.276;10.528;2023-03-01T05:43:43;-2.30;13.50
48936;DHT22;34745;52.276;10.528;2023-03-01T05:46:13;-2.30;16.30
48936;DHT22;34745;52.276;10.528;2023-03-01T05:48:42;-2.30;19.20
48936;DHT22;34745;52.276;10.528;2023-03-01T05:51:09;-2.30;20.30
48936;DHT22;34745;52.276;10.528;2023-03-01T05:53:36;-2.30;22.70
48936;DHT22;34745;52.276;10.528;2023-03-01T05:56:04;-2.30;22.30
48936;DHT22;34745;52.276;10.528;2023-03-01T05:58:31;-2.30;22.20
48936;DHT22;34745;52.276;10.528;2023-03-01T06:00:58;-2.30;21.90
48936;DHT22;34745;52.276;10.528;2023-03-01T06:03:27;-2.30;21.30
48936;DHT22;34745;52.276;10.528;2023-03-01T06:05:56;-2.20;19.80
48936;DHT22;34745;52.276;10.528;2023-03-01T06:08:23;-2.20;19.80
48936;DHT22;34745;52.276;10.528;2023-03-01T06:10:53;-2.20;18.90
48936;DHT22;34745;52.276;10.528;2023-03-01T06:13:20;-2.20;16.00
48936;DHT22;34745;52.276;10.528;2023-03-01T06:15:47;-2.20;14.40
48936;DHT22;34745;52.276;10.528;2023-03-01T06:18:15;-2.20;15.40
48936;DHT22;34745;52.276;10.528;2023-03-01T06:20:43;-2.20;17.00
48936;DHT22;34745;52.276;10.528;2023-03-01T06:23:10;-2.10;17.90
48936;DHT22;34745;52.276;10.528;2023-03-01T06:25:37;-2.20;18.10
48936;DHT22;34745;52.276;10.528;2023-03-01T06:28:04;-2.00;16.10
48936;DHT22;34745;52.276;10.528;2023-03-01T06:30:31;-2.10;13.30
48936;DHT22;34745;52.276;10.528;2023-03-01T06:32:58;-2.00;7.90
48936;DHT22;34745;52.276;10.528;2023-03-01T06:35:28;-1.90;4.10
48936;DHT22;34745;52.276;10.528;2023-03-01T06:37:59;-1.80;1.50
48936;DHT22;34745;52.276;10.528;2023-03-01T06:40:26;-1.80;1.00
48936;DHT22;34745;52.276;10.528;2023-03-01T06:42:53;-1.80;1.00
48936;DHT22;34745;52.276;10.528;2023-03-01T06:45:21;-1.80;1.00
48936;DHT22;34745;52.276;10.528;2023-03-01T06:47:48;-1.80;1.00
48936;DHT22;34745;52.276;10.528;2023-03-01T06:50:16;-1.80;1.00
48936;DHT22;34745;52.276;10.528;2023-03-01T06:52:44;-1.80;1.00
48936;DHT22;34745;52.276;10.528;2023-03-01T06:55:13;-1.80;1.00
48936;DHT22;34745;52.276;10.528;2023-03-01T06:57:40;-1.70;1.00
48936;DHT22;34745;52.276;10.528;2023-03-01T07:00:08;-1.60;1.00
48936;DHT22;34745;52.276;10.528;2023-03-01T07:02:35;-1.60;1.00
48936;DHT22;34745;52.276;10.528;2023-03-01T07:05:02;-1.40;1.00
48936;DHT22;34745;52.276;10.528;2023-03-01T07:07:30;-1.50;1.00
48936;DHT22;34745;52.276;10.528;2023-03-01T07:09:57;-1.40;1.00
48936;DHT22;34745;52.276;10.528;2023-03-01T07:12:25;-1.40;1.00
48936;DHT22;34745;52.276;10.528;2023-03-01T07:14:52;-1.40;1.00
48936;DHT22;34745;52.276;10.528;2023-03-01T07:17:19;-1.30;1.00
48936;DHT22;34745;52.276;10.528;2023-03-01T07:19:46;-1.20;1.00
48936;DHT22;34745;52.276;10.528;2023-03-01T07:22:13;-1.20;1.00
48936;DHT22;34745;52.276;10.528;2023-03-01T07:24:40;-1.20;1.00
48936;DHT22;34745;52.276;10.528;2023-03-01T07:27:08;-1.10;1.00
48936;DHT22;34745;52.276;10.528;2023-03-01T07:29:36;-1.00;1.00
48936;DHT22;34745;52.276;10.528;2023-03-01T07:32:04;-0.90;1.00
48936;DHT22;34745;52.276;10.528;2023-03-01T07:34:31;-0.90;1.00
48936;DHT22;34745;52.276;10.528;2023-03-01T07:36:58;-0.80;1.00
48936;DHT22;34745;52.276;10.528;2023-03-01T07:39:25;-0.80;1.00
48936;DHT22;34745;52.276;10.528;2023-03-01T07:41:53;-0.60;1.00
48936;DHT22;34745;52.276;10.528;2023-03-01T07:44:19;-0.50;1.00
48936;DHT22;34745;52.276;10.528;2023-03-01T07:46:48;-0.50;1.00
48936;DHT22;34745;52.276;10.528;2023-03-01T07:49:15;-0.40;1.00
48936;DHT22;34745;52.276;10.528;2023-03-01T07:51:43;-0.30;1.00
48936;DHT22;34745;52.276;10.528;2023-03-01T07:54:10;-0.20;1.00
48936;DHT22;34745;52.276;10.528;2023-03-01T07:56:37;-0.10;1.00
48936;DHT22;34745;52.276;10.528;2023-03-01T07:59:04;0.00;1.00
48936;DHT22;34745;52.276;10.528;2023-03-01T08:01:31;0.00;1.00
48936;DHT22;34745;52.276;10.528;2023-03-01T08:03:59;0.10;1.00
48936;DHT22;34745;52.276;10.528;2023-03-01T08:06:26;0.20;1.00
48936;DHT22;34745;52.276;10.528;2023-03-01T08:08:53;0.30;1.00
48936;DHT22;34745;52.276;10.528;2023-03-01T08:11:23;0.40;1.00
48936;DHT22;34745;52.276;10.528;2023-03-01T08:13:50;0.50;1.00
48936;DHT22;34745;52.276;10.528;2023-03-01T08:16:20;0.60;1.00
48936;DHT22;34745;52.276;10.528;2023-03-01T08:18:47;0.70;1.00
48936;DHT22;34745;52.276;10.528;2023-03-01T08:21:16;0.90;1.00
48936;DHT22;34745;52.276;10.528;2023-03-01T08:23:44;1.00;1.00
48936;DHT22;34745;52.276;10.528;2023-03-01T08:26:13;1.10;1.00
48936;DHT22;34745;52.276;10.528;2023-03-01T08:28:41;1.20;1.00
48936;DHT22;34745;52.276;10.528;2023-03-01T08:31:16;1.40;1.00
48936;DHT22;34745;52.276;10.528;2023-03-01T08:33:44;1.40;1.00
48936;DHT22;34745;52.276;10.528;2023-03-01T08:36:18;1.60;1.00
48936;DHT22;34745;52.276;10.528;2023-03-01T08:38:47;1.70;1.00
48936;DHT22;34745;52.276;10.528;2023-03-01T08:41:14;1.80;1.00
48936;DHT22;34745;52.276;10.528;2023-03-01T08:43:41;1.80;1.00
48936;DHT22;34745;52.276;10.528;2023-03-01T08:46:08;2.00;1.00
48936;DHT22;34745;52.276;10.528;2023-03-01T08:48:35;2.10;1.00
48936;DHT22;34745;52.276;10.528;2023-03-01T08:51:09;2.10;1.00
48936;DHT22;34745;52.276;10.528;2023-03-01T08:53:38;2.20;1.00
48936;DHT22;34745;52.276;10.528;2023-03-01T08:56:06;2.20;1.00
48936;DHT22;34745;52.276;10.528;2023-03-01T08:58:33;2.30;1.00
48936;DHT22;34745;52.276;10.528;2023-03-01T09:01:04;2.40;1.00
48936;DHT22;34745;52.276;10.528;2023-03-01T09:03:32;2.50;1.00
48936;DHT22;34745;52.276;10.528;2023-03-01T09:06:01;2.50;1.00
48936;DHT22;34745;52.276;10.528;2023-03-01T09:08:28;2.60;1.00
48936;DHT22;34745;52.276;10.528;2023-03-01T09:10:57;2.70;1.00
48936;DHT22;34745;52.276;10.528;2023-03-01T09:13:24;2.80;1.00
48936;DHT22;34745;52.276;10.528;2023-03-01T09:15:51;2.90;1.00
48936;DHT22;34745;52.276;10.528;2023-03-01T09:18:19;3.00;1.00
48936;DHT22;34745;52.276;10.528;2023-03-01T09:20:46;3.10;1.00
48936;DHT22;34745;52.276;10.528;2023-03-01T09:23:13;3.10;1.00
48936;DHT22;34745;52.276;10.528;2023-03-01T09:25:40;3.20;1.00
48936;DHT22;34745;52.276;10.528;2023-03-01T09:28:08;3.30;1.00
48936;DHT22;34745;52.276;10.528;2023-03-01T09:30:43;3.40;1.00
48936;DHT22;34745;52.276;10.528;2023-03-01T09:33:10;3.40;1.00
48936;DHT22;34745;52.276;10.528;2023-03-01T09:35:41;3.50;1.00
48936;DHT22;34745;52.276;10.528;2023-03-01T09:38:13;3.50;1.00
48936;DHT22;34745;52.276;10.528;2023-03-01T09:40:43;3.60;1.00
48936;DHT22;34745;52.276;10.528;2023-03-01T09:43:20;3.70;1.00
48936;DHT22;34745;52.276;10.528;2023-03-01T09:45:49;3.70;1.00
48936;DHT22;34745;52.276;10.528;2023-03-01T09:48:19;3.70;1.00
48936;DHT22;34745;52.276;10.528;2023-03-01T09:50:49;3.70;1.00
48936;DHT22;34745;52.276;10.528;2023-03-01T09:53:18;3.80;1.00
48936;DHT22;34745;52.276;10.528;2023-03-01T09:55:50;3.90;1.00
48936;DHT22;34745;52.276;10.528;2023-03-01T09:58:37;3.90;1.00
48936;DHT22;34745;52.276;10.528;2023-03-01T10:01:24;4.00;1.00
48936;DHT22;34745;52.276;10.528;2023-03-01T10:04:06;4.00;1.00
48936;DHT22;34745;52.276;10.528;2023-03-01T10:06:36;4.10;1.00
48936;DHT22;34745;52.276;10.528;2023-03-01T10:09:07;4.20;1.00
48936;DHT22;34745;52.276;10.528;2023-03-01T10:11:39;4.30;1.00
48936;DHT22;34745;52.276;10.528;2023-03-01T10:14:24;4.30;1.00
48936;DHT22;34745;52.276;10.528;2023-03-01T10:16:57;4.30;1.00
48936;DHT22;34745;52.276;10.528;2023-03-01T10:19:32;4.30;1.00
48936;DHT22;34745;52.276;10.528;2023-03-01T10:22:04;4.30;1.00
48936;DHT22;34745;52.276;10.528;2023-03-01T10:24:35;4.30;1.00
48936;DHT22;34745;52.276;10.528;2023-03-01T10:27:07;4.40;1.00
48936;DHT22;34745;52.276;10.528;2023-03-01T10:29:41;4.40;1.00
48936;DHT22;34745;52.276;10.528;2023-03-01T10:32:11;4.60;1.00
48936;DHT22;34745;52.276;10.528;2023-03-01T10:34:38;4.80;1.00
48936;DHT22;34745;52.276;10.528;2023-03-01T10:37:11;5.20;1.00
48936;DHT22;34745;52.276;10.528;2023-03-01T10:39:54;5.60;1.00
48936;DHT22;34745;52.276;10.528;2023-03-01T10:42:26;6.30;1.00
48936;DHT22;34745;52.276;10.528;2023-03-01T10:44:55;6.80;1.00
48936;DHT22;34745;52.276;10.528;2023-03-01T10:47:24;7.30;1.00
48936;DHT22;34745;52.276;10.528;2023-03-01T10:49:57;8.00;1.00
48936;DHT22;34745;52.276;10.528;2023-03-01T10:52:27;8.60;1.00
48936;DHT22;34745;52.276;10.528;2023-03-01T10:54:56;8.80;99.90
48936;DHT22;34745;52.276;10.528;2023-03-01T10:57:33;9.20;99.90
48936;DHT22;34745;52.276;10.528;2023-03-01T11:00:20;9.30;99.90
48936;DHT22;34745;52.276;10.528;2023-03-01T11:02:49;9.60;99.90
48936;DHT22;34745;52.276;10.528;2023-03-01T11:05:20;9.50;99.90
48936;DHT22;34745;52.276;10.528;2023-03-01T11:07:48;9.60;99.90
48936;DHT22;34745;52.276;10.528;2023-03-01T11:10:18;9.60;99.90
48936;DHT22;34745;52.276;10.528;2023-03-01T11:12:45;9.50;99.90
48936;DHT22;34745;52.276;10.528;2023-03-01T11:15:23;9.30;99.90
48936;DHT22;34745;52.276;10.528;2023-03-01T11:17:51;9.00;99.90
48936;DHT22;34745;52.276;10.528;2023-03-01T11:20:34;9.00;99.90
48936;DHT22;34745;52.276;10.528;2023-03-01T11:23:04;8.90;99.90
48936;DHT22;34745;52.276;10.528;2023-03-01T11:25:36;8.80;99.90
48936;DHT22;34745;52.276;10.528;2023-03-01T11:28:05;8.60;99.90
48936;DHT22;34745;52.276;10.528;2023-03-01T11:30:37;8.40;99.90
48936;DHT22;34745;52.276;10.528;2023-03-01T11:33:13;8.60;99.90
48936;DHT22;34745;52.276;10.528;2023-03-01T11:35:47;8.80;99.90
48936;DHT22;34745;52.276;10.528;2023-03-01T11:38:21;9.00;99.90
48936;DHT22;34745;52.276;10.528;2023-03-01T11:40:52;9.10;99.90
48936;DHT22;34745;52.276;10.528;2023-03-01T11:43:28;9.70;99.90
48936;DHT22;34745;52.276;10.528;2023-03-01T11:46:19;10.10;99.90
48936;DHT22;34745;52.276;10.528;2023-03-01T11:48:57;10.80;99.90
48936;DHT22;34745;52.276;10.528;2023-03-01T11:51:41;11.70;99.90
48936;DHT22;34745;52.276;10.528;2023-03-01T11:54:18;12.90;99.90
48936;DHT22;34745;52.276;10.528;2023-03-01T11:56:52;13.70;99.90
48936;DHT22;34745;52.276;10.528;2023-03-01T11:59:45;14.30;99.90
48936;DHT22;34745;52.276;10.528;2023-03-01T12:02:50;15.20;99.90
48936;DHT22;34745;52.276;10.528;2023-03-01T12:05:36;15.90;99.90
48936;DHT22;34745;52.276;10.528;2023-03-01T12:08:12;17.00;99.90
48936;DHT22;34745;52.276;10.528;2023-03-01T12:10:45;17.90;99.90
48936;DHT22;34745;52.276;10.528;2023-03-01T12:16:26;18.80;99.90
48936;DHT22;34745;52.276;10.528;2023-03-01T12:19:42;19.40;99.90
48936;DHT22;34745;52.276;10.528;2023-03-01T12:22:25;18.90;99.90
48936;DHT22;34745;52.276;10.528;2023-03-01T12:25:18;19.10;99.90
48936;DHT22;34745;52.276;10.528;2023-03-01T12:28:02;20.00;99.90
48936;DHT22;34745;52.276;10.528;2023-03-01T12:30:39;20.60;99.90
48936;DHT22;34745;52.276;10.528;2023-03-01T12:33:20;21.30;99.90
48936;DHT22;34745;52.276;10.528;2023-03-01T12:36:19;21.90;99.90
48936;DHT22;34745;52.276;10.528;2023-03-01T12:38:59;22.20;99.90
48936;DHT22;34745;52.276;10.528;2023-03-01T12:41:46;21.50;99.90
48936;DHT22;34745;52.276;10.528;2023-03-01T12:44:35;20.50;99.90
48936;DHT22;34745;52.276;10.528;2023-03-01T12:47:14;20.60;99.90
48936;DHT22;34745;52.276;10.528;2023-03-01T12:49:49;20.30;99.90
48936;DHT22;34745;52.276;10.528;2023-03-01T12:52:22;20.20;99.90
48936;DHT22;34745;52.276;10.528;2023-03-01T12:54:51;19.80;99.90
48936;DHT22;34745;52.276;10.528;2023-03-01T12:57:25;20.00;99.90
48936;DHT22;34745;52.276;10.528;2023-03-01T13:00:17;19.80;99.90
48936;DHT22;34745;52.276;10.528;2023-03-01T13:02:52;19.40;99.90
48936;DHT22;34745;52.276;10.528;2023-03-01T13:05:33;19.90;99.90
48936;DHT22;34745;52.276;10.528;2023-03-01T13:08:08;20.20;99.90
48936;DHT22;34745;52.276;10.528;2023-03-01T13:10:43;20.00;99.90
48936;DHT22;34745;52.276;10.528;2023-03-01T13:13:20;19.90;99.90
48936;DHT22;34745;52.276;10.528;2023-03-01T13:15:48;20.30;99.90
48936;DHT22;34745;52.276;10.528;2023-03-01T13:18:30;20.40;99.90
48936;DHT22;34745;52.276;10.528;2023-03-01T13:21:02;20.60;99.90
48936;DHT22;34745;52.276;10.528;2023-03-01T13:23:34;20.90;99.90
48936;DHT22;34745;52.276;10.528;2023-03-01T13:26:04;21.00;99.90
48936;DHT22;34745;52.276;10.528;2023-03-01T13:28:45;20.60;99.90
48936;DHT22;34745;52.276;10.528;2023-03-01T13:34:53;20.30;99.90
48936;DHT22;34745;52.276;10.528;2023-03-01T13:37:24;19.50;99.90
48936;DHT22;34745;52.276;10.528;2023-03-01T13:39:53;19.30;99.90
48936;DHT22;34745;52.276;10.528;2023-03-01T13:42:40;18.70;99.90
48936;DHT22;34745;52.276;10.528;2023-03-01T13:45:20;18.30;99.90
48936;DHT22;34745;52.276;10.528;2023-03-01T13:47:52;17.90;99.90
48936;DHT22;34745;52.276;10.528;2023-03-01T13:50:23;17.70;99.90
48936;DHT22;34745;52.276;10.528;2023-03-01T13:52:54;17.40;99.90
48936;DHT22;34745;52.276;10.528;2023-03-01T13:55:30;17.00;99.90
48936;DHT22;34745;52.276;10.528;2023-03-01T13:58:04;17.20;99.90
48936;DHT22;34745;52.276;10.528;2023-03-01T14:00:35;17.40;99.90
48936;DHT22;34745;52.276;10.528;2023-03-01T14:03:11;17.10;99.90
48936;DHT22;34745;52.276;10.528;2023-03-01T14:05:39;17.10;99.90
48936;DHT22;34745;52.276;10.528;2023-03-01T14:08:20;17.30;99.90
48936;DHT22;34745;52.276;10.528;2023-03-01T14:11:03;17.40;99.90
48936;DHT22;34745;52.276;10.528;2023-03-01T14:13:46;17.30;99.90
48936;DHT22;34745;52.276;10.528;2023-03-01T14:16:23;17.50;99.90
48936;DHT22;34745;52.276;10.528;2023-03-01T14:19:00;17.50;99.90
48936;DHT22;34745;52.276;10.528;2023-03-01T14:21:30;17.50;99.90
48936;DHT22;34745;52.276;10.528;2023-03-01T14:23:58;17.80;99.90
48936;DHT22;34745;52.276;10.528;2023-03-01T14:26:27;18.50;99.90
48936;DHT22;34745;52.276;10.528;2023-03-01T14:28:54;18.30;99.90
48936;DHT22;34745;52.276;10.528;2023-03-01T14:31:32;18.00;99.90
48936;DHT22;34745;52.276;10.528;2023-03-01T14:34:19;18.00;99.90
48936;DHT22;34745;52.276;10.528;2023-03-01T14:36:46;18.30;99.90
48936;DHT22;34745;52.276;10.528;2023-03-01T14:39:17;18.40;99.90
48936;DHT22;34745;52.276;10.528;2023-03-01T14:41:46;18.60;99.90
48936;DHT22;34745;52.276;10.528;2023-03-01T14:44:16;19.00;99.90
48936;DHT22;34745;52.276;10.528;2023-03-01T14:46:45;19.40;99.90
48936;DHT22;34745;52.276;10.528;2023-03-01T14:49:16;19.80;99.90
48936;DHT22;34745;52.276;10.528;2023-03-01T14:51:51;20.40;99.90
48936;DHT22;34745;52.276;10.528;2023-03-01T14:54:23;20.60;99.90
48936;DHT22;34745;52.276;10.528;2023-03-01T14:56:53;20.50;99.90
48936;DHT22;34745;52.276;10.528;2023-03-01T14:59:22;20.00;99.90
48936;DHT22;34745;52.276;10.528;2023-03-01T15:01:51;18.50;99.90
48936;DHT22;34745;52.276;10.528;2023-03-01T15:04:19;17.50;99.90
48936;DHT22;34745;52.276;10.528;2023-03-01T15:06:47;17.30;99.90
48936;DHT22;34745;52.276;10.528;2023-03-01T15:09:17;17.60;99.90
48936;DHT22;34745;52.276;10.528;2023-03-01T15:11:45;17.50;99.90
48936;DHT22;34745;52.276;10.528;2023-03-01T15:14:40;17.60;99.90
48936;DHT22;34745;52.276;10.528;2023-03-01T15:17:31;17.70;99.90
48936;DHT22;34745;52.276;10.528;2023-03-01T15:20:00;17.80;99.90
48936;DHT22;34745;52.276;10.528;2023-03-01T15:22:29;17.10;99.90
48936;DHT22;34745;52.276;10.528;2023-03-01T15:24:56;16.50;99.90
48936;DHT22;34745;52.276;10.528;2023-03-01T15:27:25;16.40;99.90
48936;DHT22;34745;52.276;10.528;2023-03-01T15:29:56;16.30;99.90
48936;DHT22;34745;52.276;10.528;2023-03-01T15:32:27;15.70;99.90
48936;DHT22;34745;52.276;10.528;2023-03-01T15:34:54;14.60;99.90
48936;DHT22;34745;52.276;10.528;2023-03-01T15:37:39;13.70;99.90
48936;DHT22;34745;52.276;10.528;2023-03-01T15:40:18;12.90;99.90
48936;DHT22;34745;52.276;10.528;2023-03-01T15:42:47;12.20;99.90
48936;DHT22;34745;52.276;10.528;2023-03-01T15:45:23;11.40;99.90
48936;DHT22;34745;52.276;10.528;2023-03-01T15:47:52;10.70;99.90
48936;DHT22;34745;52.276;10.528;2023-03-01T15:50:22;10.30;99.90
48936;DHT22;34745;52.276;10.528;2023-03-01T15:52:49;10.00;99.90
48936;DHT22;34745;52.276;10.528;2023-03-01T15:55:19;9.80;99.90
48936;DHT22;34745;52.276;10.528;2023-03-01T15:57:47;9.50;99.90
48936;DHT22;34745;52.276;10.528;2023-03-01T16:00:15;9.20;99.90